Strona główna
METAR-TAF:

METAR-TAF

Lotnisko :

Bric della Croce

Turyn, Włochy

Szerokość geograficzna: 45-02N, Długość geograficzna: 007-44E, wysokość: 709 m

Aktualna obserwacja pogody

Raport powstał 1 godzina i 18 minut temu, godzina 09:55 UTC
Cisza
Temperatura 8°C
Wilgotność 57%
Ciśnienie 1023 hPa
Widzialność 10 km lub więcej
Brak chmur poniżej 1500 m i brak chmur cumulonimbus

METAR: LIMK 180955Z 00000KT CAVOK 08/00 Q1023 RMK SKC VAL FOSCHIA SKC SUP VIS MIN 9999

czas: 12:13 (11:13 UTC)


TAF: brakujący

Obserwacja i prognoza pogody dla ponad 4000 lotnisk (raport METAR i TAF).

Dostępne stacje oznaczono żółtymi i czerwonymi punktami na mapie.

Najedź kursorem aby zobaczyć nazwę stacji.

Kliknij aby zobaczyć obserwacje i prognozy pogody.

Aby zmienić mapę: kliknij na zielony przycisk z czarnym krzyżykiem, aby powiększyć; na zielony przycisk z myślnikiem, aby pomniejszyć; na zielone strzałki, aby przejść do map sąsiednich.


METAR-TAF: